sensor_id;sensor_type;location;lat;lon;timestamp;pressure;altitude;pressure_sealevel;temperature;humidity
48872;BME280;36154;51.674;7.824;2023-05-24T00:02:24;101533.56;;;21.07;32.90
48872;BME280;36154;51.674;7.824;2023-05-24T00:04:51;101535.31;;;21.06;32.88
48872;BME280;36154;51.674;7.824;2023-05-24T00:07:20;101537.06;;;21.05;32.84
48872;BME280;36154;51.674;7.824;2023-05-24T00:09:46;101524.97;;;21.04;32.79
48872;BME280;36154;51.674;7.824;2023-05-24T00:12:13;101533.63;;;21.03;32.78
48872;BME280;36154;51.674;7.824;2023-05-24T00:14:39;101537.09;;;21.02;32.68
48872;BME280;36154;51.674;7.824;2023-05-24T00:17:06;101525.03;;;21.01;32.90
48872;BME280;36154;51.674;7.824;2023-05-24T00:19:32;101520.75;;;21.00;32.84
48872;BME280;36154;51.674;7.824;2023-05-24T00:21:57;101525.03;;;21.00;32.94
48872;BME280;36154;51.674;7.824;2023-05-24T00:24:23;101519.88;;;20.98;32.92
48872;BME280;36154;51.674;7.824;2023-05-24T00:26:49;101524.25;;;20.96;33.00
48872;BME280;36154;51.674;7.824;2023-05-24T00:29:15;101523.41;;;20.96;33.11
48872;BME280;36154;51.674;7.824;2023-05-24T00:31:41;101521.69;;;20.95;32.95
48872;BME280;36154;51.674;7.824;2023-05-24T00:34:07;101525.19;;;20.92;32.91
48872;BME280;36154;51.674;7.824;2023-05-24T00:36:36;101520.00;;;20.92;33.02
48872;BME280;36154;51.674;7.824;2023-05-24T00:39:02;101518.28;;;20.91;33.02
48872;BME280;36154;51.674;7.824;2023-05-24T00:41:28;101516.56;;;20.90;33.08
48872;BME280;36154;51.674;7.824;2023-05-24T00:43:54;101521.75;;;20.90;32.85
48872;BME280;36154;51.674;7.824;2023-05-24T00:46:26;101521.75;;;20.90;33.05
48872;BME280;36154;51.674;7.824;2023-05-24T00:48:53;101520.94;;;20.86;32.96
48872;BME280;36154;51.674;7.824;2023-05-24T00:51:19;101521.84;;;20.85;33.13
48872;BME280;36154;51.674;7.824;2023-05-24T00:53:47;101527.03;;;20.84;33.11
48872;BME280;36154;51.674;7.824;2023-05-24T00:56:16;101533.94;;;20.83;33.07
48872;BME280;36154;51.674;7.824;2023-05-24T00:58:43;101533.06;;;20.84;33.14
48872;BME280;36154;51.674;7.824;2023-05-24T01:01:10;101529.63;;;20.84;33.11
48872;BME280;36154;51.674;7.824;2023-05-24T01:03:39;101520.13;;;20.83;33.23
48872;BME280;36154;51.674;7.824;2023-05-24T01:06:07;101517.56;;;20.81;33.25
48872;BME280;36154;51.674;7.824;2023-05-24T01:11:52;101497.78;;;20.79;33.21
48872;BME280;36154;51.674;7.824;2023-05-24T01:14:28;101498.63;;;20.78;33.35
48872;BME280;36154;51.674;7.824;2023-05-24T01:17:22;101494.31;;;20.77;33.40
48872;BME280;36154;51.674;7.824;2023-05-24T01:19:56;101497.81;;;20.76;33.45
48872;BME280;36154;51.674;7.824;2023-05-24T01:25:48;101497.00;;;20.74;33.57
48872;BME280;36154;51.674;7.824;2023-05-24T01:28:19;101492.69;;;20.73;33.41
48872;BME280;36154;51.674;7.824;2023-05-24T01:30:47;101496.13;;;20.72;33.69
48872;BME280;36154;51.674;7.824;2023-05-24T01:33:14;101490.97;;;20.72;33.69
48872;BME280;36154;51.674;7.824;2023-05-24T01:35:43;101484.09;;;20.71;33.71
48872;BME280;36154;51.674;7.824;2023-05-24T01:38:12;101484.09;;;20.71;33.68
48872;BME280;36154;51.674;7.824;2023-05-24T01:40:40;101487.53;;;20.70;33.71
48872;BME280;36154;51.674;7.824;2023-05-24T01:43:26;101475.50;;;20.68;33.76
48872;BME280;36154;51.674;7.824;2023-05-24T01:46:17;101486.72;;;20.67;33.86
48872;BME280;36154;51.674;7.824;2023-05-24T01:49:28;101487.59;;;20.66;33.79
48872;BME280;36154;51.674;7.824;2023-05-24T01:52:00;101480.72;;;20.65;33.90
48872;BME280;36154;51.674;7.824;2023-05-24T01:54:31;101473.81;;;20.64;33.93
48872;BME280;36154;51.674;7.824;2023-05-24T01:56:57;101474.69;;;20.63;33.78
48872;BME280;36154;51.674;7.824;2023-05-24T01:59:25;101468.69;;;20.61;33.98
48872;BME280;36154;51.674;7.824;2023-05-24T02:01:53;101473.84;;;20.61;33.82
48872;BME280;36154;51.674;7.824;2023-05-24T02:04:19;101476.44;;;20.61;34.01
48872;BME280;36154;51.674;7.824;2023-05-24T02:06:45;101478.19;;;20.61;33.97
48872;BME280;36154;51.674;7.824;2023-05-24T02:09:11;101473.03;;;20.59;34.09
48872;BME280;36154;51.674;7.824;2023-05-24T02:11:36;101474.78;;;20.59;34.03
48872;BME280;36154;51.674;7.824;2023-05-24T02:14:02;101471.31;;;20.58;34.19
48872;BME280;36154;51.674;7.824;2023-05-24T02:16:28;101475.63;;;20.59;34.08
48872;BME280;36154;51.674;7.824;2023-05-24T02:18:58;101471.31;;;20.58;34.09
48872;BME280;36154;51.674;7.824;2023-05-24T02:21:24;101458.44;;;20.55;34.12
48872;BME280;36154;51.674;7.824;2023-05-24T02:23:52;101460.16;;;20.53;33.93
48872;BME280;36154;51.674;7.824;2023-05-24T02:26:17;101467.97;;;20.52;33.94
48872;BME280;36154;51.674;7.824;2023-05-24T02:28:43;101473.13;;;20.52;34.12
48872;BME280;36154;51.674;7.824;2023-05-24T02:31:09;101468.84;;;20.52;34.21
48872;BME280;36154;51.674;7.824;2023-05-24T02:33:35;101471.44;;;20.51;34.31
48872;BME280;36154;51.674;7.824;2023-05-24T02:36:01;101475.75;;;20.50;34.13
48872;BME280;36154;51.674;7.824;2023-05-24T02:38:27;101468.84;;;20.51;34.17
48872;BME280;36154;51.674;7.824;2023-05-24T02:40:53;101458.53;;;20.49;34.01
48872;BME280;36154;51.674;7.824;2023-05-24T02:43:19;101468.03;;;20.48;34.12
48872;BME280;36154;51.674;7.824;2023-05-24T02:45:45;101458.53;;;20.49;34.39
48872;BME280;36154;51.674;7.824;2023-05-24T02:48:11;101456.81;;;20.48;34.24
48872;BME280;36154;51.674;7.824;2023-05-24T02:50:36;101470.66;;;20.47;34.30
48872;BME280;36154;51.674;7.824;2023-05-24T02:53:02;101481.00;;;20.47;34.38
48872;BME280;36154;51.674;7.824;2023-05-24T02:55:28;101458.53;;;20.46;34.38
48872;BME280;36154;51.674;7.824;2023-05-24T02:57:56;101472.34;;;20.45;34.28
48872;BME280;36154;51.674;7.824;2023-05-24T03:00:22;101474.94;;;20.43;34.42
48872;BME280;36154;51.674;7.824;2023-05-24T03:02:48;101474.09;;;20.43;34.30
48872;BME280;36154;51.674;7.824;2023-05-24T03:05:15;101477.59;;;20.42;34.15
48872;BME280;36154;51.674;7.824;2023-05-24T03:07:42;101476.72;;;20.41;34.33
48872;BME280;36154;51.674;7.824;2023-05-24T03:10:10;101478.47;;;20.41;34.34
48872;BME280;36154;51.674;7.824;2023-05-24T03:12:36;101469.84;;;20.40;34.23
48872;BME280;36154;51.674;7.824;2023-05-24T03:15:02;101471.59;;;20.38;34.21
48872;BME280;36154;51.674;7.824;2023-05-24T03:17:28;101476.75;;;20.38;34.46
48872;BME280;36154;51.674;7.824;2023-05-24T03:19:57;101480.25;;;20.37;34.29
48872;BME280;36154;51.674;7.824;2023-05-24T03:22:22;101480.25;;;20.37;34.37
48872;BME280;36154;51.674;7.824;2023-05-24T03:24:48;101472.50;;;20.36;34.36
48872;BME280;36154;51.674;7.824;2023-05-24T03:27:14;101474.25;;;20.34;34.25
48872;BME280;36154;51.674;7.824;2023-05-24T03:29:40;101472.53;;;20.33;34.39
48872;BME280;36154;51.674;7.824;2023-05-24T03:32:05;101467.38;;;20.31;34.43
48872;BME280;36154;51.674;7.824;2023-05-24T03:34:31;101466.53;;;20.30;34.42
48872;BME280;36154;51.674;7.824;2023-05-24T03:36:57;101462.22;;;20.29;34.63
48872;BME280;36154;51.674;7.824;2023-05-24T03:39:22;101470.00;;;20.28;34.60
48872;BME280;36154;51.674;7.824;2023-05-24T03:41:50;101472.63;;;20.26;34.63
48872;BME280;36154;51.674;7.824;2023-05-24T03:44:16;101468.31;;;20.27;34.58
48872;BME280;36154;51.674;7.824;2023-05-24T03:46:43;101473.50;;;20.25;34.66
48872;BME280;36154;51.674;7.824;2023-05-24T03:49:08;101476.94;;;20.27;34.60
48872;BME280;36154;51.674;7.824;2023-05-24T03:51:34;101485.56;;;20.26;34.54
48872;BME280;36154;51.674;7.824;2023-05-24T03:54:00;101488.13;;;20.26;34.66
48872;BME280;36154;51.674;7.824;2023-05-24T03:56:26;101482.13;;;20.26;34.58
48872;BME280;36154;51.674;7.824;2023-05-24T03:58:52;101484.72;;;20.24;34.79
48872;BME280;36154;51.674;7.824;2023-05-24T04:01:18;101484.72;;;20.24;34.66
48872;BME280;36154;51.674;7.824;2023-05-24T04:03:46;101488.22;;;20.23;34.82
48872;BME280;36154;51.674;7.824;2023-05-24T04:06:12;101483.91;;;20.22;34.69
48872;BME280;36154;51.674;7.824;2023-05-24T04:08:38;101482.19;;;20.21;34.85
48872;BME280;36154;51.674;7.824;2023-05-24T04:11:04;101478.75;;;20.21;34.90
48872;BME280;36154;51.674;7.824;2023-05-24T04:13:30;101484.78;;;20.20;34.89
48872;BME280;36154;51.674;7.824;2023-05-24T04:15:56;101491.69;;;20.19;34.92
48872;BME280;36154;51.674;7.824;2023-05-24T04:18:22;101497.75;;;20.18;34.95
48872;BME280;36154;51.674;7.824;2023-05-24T04:20:47;101496.91;;;20.16;34.92
48872;BME280;36154;51.674;7.824;2023-05-24T04:23:13;101497.81;;;20.15;34.95
48872;BME280;36154;51.674;7.824;2023-05-24T04:25:39;101496.09;;;20.14;34.90
48872;BME280;36154;51.674;7.824;2023-05-24T04:28:05;101503.00;;;20.13;34.70
48872;BME280;36154;51.674;7.824;2023-05-24T04:30:31;101500.44;;;20.12;34.98
48872;BME280;36154;51.674;7.824;2023-05-24T04:32:58;101499.53;;;20.13;34.89
48872;BME280;36154;51.674;7.824;2023-05-24T04:35:24;101510.78;;;20.12;34.92
48872;BME280;36154;51.674;7.824;2023-05-24T04:37:52;101509.06;;;20.11;34.72
48872;BME280;36154;51.674;7.824;2023-05-24T04:40:18;101509.06;;;20.11;35.02
48872;BME280;36154;51.674;7.824;2023-05-24T04:42:49;101506.47;;;20.11;34.99
48872;BME280;36154;51.674;7.824;2023-05-24T04:45:15;101509.91;;;20.11;35.12
48872;BME280;36154;51.674;7.824;2023-05-24T04:47:41;101504.78;;;20.10;35.05
48872;BME280;36154;51.674;7.824;2023-05-24T04:50:08;101500.44;;;20.12;35.12
48872;BME280;36154;51.674;7.824;2023-05-24T04:52:34;101498.69;;;20.11;34.98
48872;BME280;36154;51.674;7.824;2023-05-24T04:55:02;101503.03;;;20.10;35.05
48872;BME280;36154;51.674;7.824;2023-05-24T04:57:28;101498.75;;;20.08;35.06
48872;BME280;36154;51.674;7.824;2023-05-24T04:59:54;101509.06;;;20.09;34.99
48872;BME280;36154;51.674;7.824;2023-05-24T05:02:20;101505.63;;;20.09;34.99
48872;BME280;36154;51.674;7.824;2023-05-24T05:04:47;101509.94;;;20.10;35.07
48872;BME280;36154;51.674;7.824;2023-05-24T05:07:12;101511.66;;;20.09;35.10
48872;BME280;36154;51.674;7.824;2023-05-24T05:09:37;101519.41;;;20.11;35.07
48872;BME280;36154;51.674;7.824;2023-05-24T05:12:03;101524.56;;;20.11;35.21
48872;BME280;36154;51.674;7.824;2023-05-24T05:14:28;101523.72;;;20.10;35.21
48872;BME280;36154;51.674;7.824;2023-05-24T05:16:54;101520.25;;;20.11;35.27
48872;BME280;36154;51.674;7.824;2023-05-24T05:19:19;101526.31;;;20.12;35.07
48872;BME280;36154;51.674;7.824;2023-05-24T05:21:44;101525.44;;;20.11;35.24
48872;BME280;36154;51.674;7.824;2023-05-24T05:24:10;101511.63;;;20.12;35.17
48872;BME280;36154;51.674;7.824;2023-05-24T05:26:35;101506.44;;;20.12;35.33
48872;BME280;36154;51.674;7.824;2023-05-24T05:29:00;101501.25;;;20.14;35.19
48872;BME280;36154;51.674;7.824;2023-05-24T05:31:26;101511.59;;;20.14;35.36
48872;BME280;36154;51.674;7.824;2023-05-24T05:33:51;101508.16;;;20.13;35.43
48872;BME280;36154;51.674;7.824;2023-05-24T05:36:16;101521.09;;;20.15;35.45
48872;BME280;36154;51.674;7.824;2023-05-24T05:38:41;101524.53;;;20.14;35.42
48872;BME280;36154;51.674;7.824;2023-05-24T05:41:07;101521.09;;;20.15;35.48
48872;BME280;36154;51.674;7.824;2023-05-24T05:43:32;101514.19;;;20.14;35.42
48872;BME280;36154;51.674;7.824;2023-05-24T05:45:57;101511.56;;;20.17;35.56
48872;BME280;36154;51.674;7.824;2023-05-24T05:48:24;101503.81;;;20.16;35.73
48872;BME280;36154;51.674;7.824;2023-05-24T05:50:49;101495.22;;;20.15;35.58
48872;BME280;36154;51.674;7.824;2023-05-24T05:53:15;101508.13;;;20.17;35.61
48872;BME280;36154;51.674;7.824;2023-05-24T05:55:41;101519.34;;;20.17;35.84
48872;BME280;36154;51.674;7.824;2023-05-24T05:58:06;101516.72;;;20.19;35.82
48872;BME280;36154;51.674;7.824;2023-05-24T06:00:31;101521.03;;;20.18;35.70
48872;BME280;36154;51.674;7.824;2023-05-24T06:02:57;101512.41;;;20.19;35.99
48872;BME280;36154;51.674;7.824;2023-05-24T06:05:22;101505.47;;;20.21;35.96
48872;BME280;36154;51.674;7.824;2023-05-24T06:07:47;101514.13;;;20.20;36.05
48872;BME280;36154;51.674;7.824;2023-05-24T06:10:12;101504.63;;;20.19;35.91
48872;BME280;36154;51.674;7.824;2023-05-24T06:12:38;101509.75;;;20.24;35.91
48872;BME280;36154;51.674;7.824;2023-05-24T06:15:05;101508.94;;;20.22;35.97
48872;BME280;36154;51.674;7.824;2023-05-24T06:17:32;101517.53;;;20.24;36.12
48872;BME280;36154;51.674;7.824;2023-05-24T06:19:58;101523.53;;;20.26;36.31
48872;BME280;36154;51.674;7.824;2023-05-24T06:22:24;101509.75;;;20.25;36.14
48872;BME280;36154;51.674;7.824;2023-05-24T06:24:51;101507.97;;;20.27;36.18
48872;BME280;36154;51.674;7.824;2023-05-24T06:27:16;101514.88;;;20.28;36.27
48872;BME280;36154;51.674;7.824;2023-05-24T06:29:42;101520.88;;;20.30;36.20
48872;BME280;36154;51.674;7.824;2023-05-24T06:32:07;101517.41;;;20.31;36.27
48872;BME280;36154;51.674;7.824;2023-05-24T06:34:32;101521.72;;;20.33;36.27
48872;BME280;36154;51.674;7.824;2023-05-24T06:36:58;101513.09;;;20.32;36.45
48872;BME280;36154;51.674;7.824;2023-05-24T06:39:23;101519.13;;;20.33;36.44
48872;BME280;36154;51.674;7.824;2023-05-24T06:41:49;101525.13;;;20.33;36.27
48872;BME280;36154;51.674;7.824;2023-05-24T06:44:15;101526.03;;;20.34;36.46
48872;BME280;36154;51.674;7.824;2023-05-24T06:46:40;101520.84;;;20.34;36.44
48872;BME280;36154;51.674;7.824;2023-05-24T06:49:06;101532.88;;;20.35;36.52
48872;BME280;36154;51.674;7.824;2023-05-24T06:51:31;101526.84;;;20.36;36.64
48872;BME280;36154;51.674;7.824;2023-05-24T06:53:57;101524.25;;;20.36;36.44
48872;BME280;36154;51.674;7.824;2023-05-24T06:56:23;101523.41;;;20.37;36.65
48872;BME280;36154;51.674;7.824;2023-05-24T06:58:48;101513.94;;;20.33;36.71
48872;BME280;36154;51.674;7.824;2023-05-24T07:01:13;101518.25;;;20.35;36.79
48872;BME280;36154;51.674;7.824;2023-05-24T07:03:39;101522.50;;;20.38;36.62
48872;BME280;36154;51.674;7.824;2023-05-24T07:06:04;101527.69;;;20.38;36.73
48872;BME280;36154;51.674;7.824;2023-05-24T07:08:30;101531.09;;;20.40;36.69
48872;BME280;36154;51.674;7.824;2023-05-24T07:10:55;101535.38;;;20.42;36.71
48872;BME280;36154;51.674;7.824;2023-05-24T07:13:21;101544.81;;;20.45;36.83
48872;BME280;36154;51.674;7.824;2023-05-24T07:15:46;101532.78;;;20.47;36.84
48872;BME280;36154;51.674;7.824;2023-05-24T07:18:12;101537.88;;;20.50;36.93
48872;BME280;36154;51.674;7.824;2023-05-24T07:20:37;101530.97;;;20.52;36.94
48872;BME280;36154;51.674;7.824;2023-05-24T07:23:03;101533.53;;;20.54;37.10
48872;BME280;36154;51.674;7.824;2023-05-24T07:25:28;101538.69;;;20.55;36.84
48872;BME280;36154;51.674;7.824;2023-05-24T07:27:54;101539.53;;;20.57;36.97
48872;BME280;36154;51.674;7.824;2023-05-24T07:30:19;101538.59;;;20.60;36.88
48872;BME280;36154;51.674;7.824;2023-05-24T07:32:45;101541.16;;;20.63;36.87
48872;BME280;36154;51.674;7.824;2023-05-24T07:35:10;101535.13;;;20.64;36.86
48872;BME280;36154;51.674;7.824;2023-05-24T07:37:37;101541.97;;;20.66;36.92
48872;BME280;36154;51.674;7.824;2023-05-24T07:40:03;101537.66;;;20.68;36.80
48872;BME280;36154;51.674;7.824;2023-05-24T07:42:29;101540.19;;;20.70;36.70
48872;BME280;36154;51.674;7.824;2023-05-24T07:44:55;101525.53;;;20.71;36.94
48872;BME280;36154;51.674;7.824;2023-05-24T07:47:21;101534.94;;;20.75;36.82
48872;BME280;36154;51.674;7.824;2023-05-24T07:49:46;101531.47;;;20.76;36.99
48872;BME280;36154;51.674;7.824;2023-05-24T07:52:11;101540.91;;;20.78;36.96
48872;BME280;36154;51.674;7.824;2023-05-24T07:54:36;101536.63;;;20.79;36.80
48872;BME280;36154;51.674;7.824;2023-05-24T07:57:02;101541.78;;;20.80;36.86
48872;BME280;36154;51.674;7.824;2023-05-24T07:59:28;101534.00;;;20.80;36.88
48872;BME280;36154;51.674;7.824;2023-05-24T08:01:54;101539.13;;;20.82;36.80
48872;BME280;36154;51.674;7.824;2023-05-24T08:04:19;101542.59;;;20.84;36.84
48872;BME280;36154;51.674;7.824;2023-05-24T08:06:45;101534.78;;;20.85;36.75
48872;BME280;36154;51.674;7.824;2023-05-24T08:09:11;101532.19;;;20.85;36.86
48872;BME280;36154;51.674;7.824;2023-05-24T08:11:36;101542.53;;;20.87;36.90
48872;BME280;36154;51.674;7.824;2023-05-24T08:14:01;101536.44;;;20.90;36.99
48872;BME280;36154;51.674;7.824;2023-05-24T08:16:27;101537.28;;;20.90;36.95
48872;BME280;36154;51.674;7.824;2023-05-24T08:18:52;101532.09;;;20.90;37.00
48872;BME280;36154;51.674;7.824;2023-05-24T08:21:18;101542.44;;;20.92;36.92
48872;BME280;36154;51.674;7.824;2023-05-24T08:23:44;101551.09;;;20.92;36.70
48872;BME280;36154;51.674;7.824;2023-05-24T08:26:09;101551.09;;;20.92;36.96
48872;BME280;36154;51.674;7.824;2023-05-24T08:28:35;101545.91;;;20.92;36.85
48872;BME280;36154;51.674;7.824;2023-05-24T08:31:00;101544.16;;;20.94;36.81
48872;BME280;36154;51.674;7.824;2023-05-24T08:33:25;101547.59;;;20.95;36.77
48872;BME280;36154;51.674;7.824;2023-05-24T08:35:51;101548.44;;;20.95;36.87
48872;BME280;36154;51.674;7.824;2023-05-24T08:38:17;101542.38;;;20.96;36.98
48872;BME280;36154;51.674;7.824;2023-05-24T08:40:42;101538.91;;;20.97;36.81
48872;BME280;36154;51.674;7.824;2023-05-24T08:43:08;101547.56;;;20.96;36.70
48872;BME280;36154;51.674;7.824;2023-05-24T08:45:37;101543.19;;;21.00;36.63
48872;BME280;36154;51.674;7.824;2023-05-24T08:48:06;101549.25;;;21.00;36.60
48872;BME280;36154;51.674;7.824;2023-05-24T08:50:32;101540.56;;;21.01;36.76
48872;BME280;36154;51.674;7.824;2023-05-24T08:52:59;101546.59;;;21.02;36.48
48872;BME280;36154;51.674;7.824;2023-05-24T08:55:27;101544.84;;;21.04;36.64
48872;BME280;36154;51.674;7.824;2023-05-24T08:57:54;101534.50;;;21.02;36.47
48872;BME280;36154;51.674;7.824;2023-05-24T09:00:20;101541.38;;;21.03;36.74
48872;BME280;36154;51.674;7.824;2023-05-24T09:02:46;101534.50;;;21.04;36.67
48872;BME280;36154;51.674;7.824;2023-05-24T09:05:13;101532.75;;;21.04;36.64
48872;BME280;36154;51.674;7.824;2023-05-24T09:07:42;101533.63;;;21.03;36.62
48872;BME280;36154;51.674;7.824;2023-05-24T09:10:08;101534.50;;;21.04;36.72
48872;BME280;36154;51.674;7.824;2023-05-24T09:12:36;101528.44;;;21.03;36.64
48872;BME280;36154;51.674;7.824;2023-05-24T09:15:02;101529.31;;;21.04;36.59
48872;BME280;36154;51.674;7.824;2023-05-24T09:17:30;101534.50;;;21.04;36.53
48872;BME280;36154;51.674;7.824;2023-05-24T09:19:56;101534.47;;;21.05;36.52
48872;BME280;36154;51.674;7.824;2023-05-24T09:22:24;101529.28;;;21.05;36.46
48872;BME280;36154;51.674;7.824;2023-05-24T09:24:52;101536.16;;;21.07;36.42
48872;BME280;36154;51.674;7.824;2023-05-24T09:27:18;101533.56;;;21.07;36.25
48872;BME280;36154;51.674;7.824;2023-05-24T09:29:48;101535.28;;;21.08;36.21
48872;BME280;36154;51.674;7.824;2023-05-24T09:32:14;101535.28;;;21.08;36.19
48872;BME280;36154;51.674;7.824;2023-05-24T09:34:41;101536.13;;;21.08;36.05
48872;BME280;36154;51.674;7.824;2023-05-24T09:37:12;101534.38;;;21.09;36.06
48872;BME280;36154;51.674;7.824;2023-05-24T09:39:40;101538.75;;;21.07;36.13
48872;BME280;36154;51.674;7.824;2023-05-24T09:42:06;101542.16;;;21.09;36.16
48872;BME280;36154;51.674;7.824;2023-05-24T09:44:31;101545.66;;;21.08;36.08
48872;BME280;36154;51.674;7.824;2023-05-24T09:47:01;101547.34;;;21.09;36.19
48872;BME280;36154;51.674;7.824;2023-05-24T09:49:29;101549.06;;;21.10;36.09
48872;BME280;36154;51.674;7.824;2023-05-24T09:51:54;101543.03;;;21.09;36.25
48872;BME280;36154;51.674;7.824;2023-05-24T09:54:20;101547.31;;;21.10;36.02
48872;BME280;36154;51.674;7.824;2023-05-24T09:56:46;101538.72;;;21.10;35.98
48872;BME280;36154;51.674;7.824;2023-05-24T09:59:11;101540.44;;;21.11;36.10
48872;BME280;36154;51.674;7.824;2023-05-24T10:01:37;101535.25;;;21.11;36.17
48872;BME280;36154;51.674;7.824;2023-05-24T10:04:02;101530.06;;;21.11;36.17
48872;BME280;36154;51.674;7.824;2023-05-24T10:06:32;101526.63;;;21.09;36.09
48872;BME280;36154;51.674;7.824;2023-05-24T10:09:02;101541.28;;;21.11;35.98
48872;BME280;36154;51.674;7.824;2023-05-24T10:11:31;101539.50;;;21.13;36.09
48872;BME280;36154;51.674;7.824;2023-05-24T10:13:57;101536.88;;;21.15;36.01
48872;BME280;36154;51.674;7.824;2023-05-24T10:16:23;101546.41;;;21.14;36.17
48872;BME280;36154;51.674;7.824;2023-05-24T10:18:49;101540.31;;;21.15;36.17
48872;BME280;36154;51.674;7.824;2023-05-24T10:21:16;101553.25;;;21.17;36.24
48872;BME280;36154;51.674;7.824;2023-05-24T10:23:49;101553.25;;;21.17;36.32
48872;BME280;36154;51.674;7.824;2023-05-24T10:26:15;101544.63;;;21.18;36.42
48872;BME280;36154;51.674;7.824;2023-05-24T10:28:46;101555.81;;;21.20;36.79
48872;BME280;36154;51.674;7.824;2023-05-24T10:31:21;101557.53;;;21.21;37.03
48872;BME280;36154;51.674;7.824;2023-05-24T10:33:51;101558.34;;;21.23;37.26
48872;BME280;36154;51.674;7.824;2023-05-24T10:36:17;101561.75;;;21.25;37.28
48872;BME280;36154;51.674;7.824;2023-05-24T10:38:45;101555.72;;;21.26;37.73
48872;BME280;36154;51.674;7.824;2023-05-24T10:41:11;101559.16;;;21.27;37.59
48872;BME280;36154;51.674;7.824;2023-05-24T10:43:37;101552.22;;;21.27;37.91
48872;BME280;36154;51.674;7.824;2023-05-24T10:46:03;101547.03;;;21.27;37.86
48872;BME280;36154;51.674;7.824;2023-05-24T10:50:55;101549.63;;;21.29;38.38
48872;BME280;36154;51.674;7.824;2023-05-24T10:53:26;101545.31;;;21.29;38.26
48872;BME280;36154;51.674;7.824;2023-05-24T11:00:59;101539.19;;;21.33;38.36
48872;BME280;36154;51.674;7.824;2023-05-24T11:03:31;101536.56;;;21.35;38.58
48872;BME280;36154;51.674;7.824;2023-05-24T11:05:57;101544.31;;;21.38;38.50
48872;BME280;36154;51.674;7.824;2023-05-24T11:08:33;101542.53;;;21.40;38.42
48872;BME280;36154;51.674;7.824;2023-05-24T11:11:09;101546.81;;;21.42;38.69
48872;BME280;36154;51.674;7.824;2023-05-24T11:13:36;101539.88;;;21.43;38.92
48872;BME280;36154;51.674;7.824;2023-05-24T11:16:03;101546.78;;;21.46;39.50
48872;BME280;36154;51.674;7.824;2023-05-24T11:18:28;101546.69;;;21.49;40.07
48872;BME280;36154;51.674;7.824;2023-05-24T11:20:53;101550.97;;;21.51;40.72
48872;BME280;36154;51.674;7.824;2023-05-24T11:23:21;101544.94;;;21.52;41.46
48872;BME280;36154;51.674;7.824;2023-05-24T11:25:47;101552.63;;;21.55;41.45
48872;BME280;36154;51.674;7.824;2023-05-24T11:28:13;101545.69;;;21.57;41.72
48872;BME280;36154;51.674;7.824;2023-05-24T11:30:42;101544.75;;;21.60;42.05
48872;BME280;36154;51.674;7.824;2023-05-24T11:33:22;101557.69;;;21.62;42.07
48872;BME280;36154;51.674;7.824;2023-05-24T11:35:51;101545.59;;;21.62;41.90
48872;BME280;36154;51.674;7.824;2023-05-24T11:38:18;101547.31;;;21.63;41.80
48872;BME280;36154;51.674;7.824;2023-05-24T11:40:46;101553.31;;;21.65;42.20
48872;BME280;36154;51.674;7.824;2023-05-24T11:43:13;101549.84;;;21.66;42.20
48872;BME280;36154;51.674;7.824;2023-05-24T11:45:43;101551.53;;;21.67;42.18
48872;BME280;36154;51.674;7.824;2023-05-24T11:48:09;101544.59;;;21.69;42.17
48872;BME280;36154;51.674;7.824;2023-05-24T11:50:43;101554.97;;;21.69;42.27
48872;BME280;36154;51.674;7.824;2023-05-24T11:53:12;101548.91;;;21.69;42.17
48872;BME280;36154;51.674;7.824;2023-05-24T11:55:39;101545.41;;;21.71;42.28
48872;BME280;36154;51.674;7.824;2023-05-24T11:58:10;101548.84;;;21.72;42.33
48872;BME280;36154;51.674;7.824;2023-05-24T12:00:36;101551.44;;;21.73;42.27
48872;BME280;36154;51.674;7.824;2023-05-24T12:03:02;101547.97;;;21.74;42.13
48872;BME280;36154;51.674;7.824;2023-05-24T12:05:31;101536.69;;;21.75;41.66
48872;BME280;36154;51.674;7.824;2023-05-24T12:08:08;101539.28;;;21.75;41.66
48872;BME280;36154;51.674;7.824;2023-05-24T12:10:37;101530.63;;;21.76;41.50
48872;BME280;36154;51.674;7.824;2023-05-24T12:13:03;101543.56;;;21.78;41.60
48872;BME280;36154;51.674;7.824;2023-05-24T12:15:30;101540.94;;;21.79;41.71
48872;BME280;36154;51.674;7.824;2023-05-24T12:17:56;101542.63;;;21.81;41.69
48872;BME280;36154;51.674;7.824;2023-05-24T12:20:22;101540.03;;;21.81;41.64
48872;BME280;36154;51.674;7.824;2023-05-24T12:22:48;101544.34;;;21.82;41.83
48872;BME280;36154;51.674;7.824;2023-05-24T12:25:16;101538.34;;;21.79;41.82
48872;BME280;36154;51.674;7.824;2023-05-24T12:27:44;101541.72;;;21.83;41.73
48872;BME280;36154;51.674;7.824;2023-05-24T12:30:13;101544.31;;;21.83;41.87
48872;BME280;36154;51.674;7.824;2023-05-24T12:32:44;101554.69;;;21.85;41.99
48872;BME280;36154;51.674;7.824;2023-05-24T12:35:10;101557.25;;;21.86;42.14
48872;BME280;36154;51.674;7.824;2023-05-24T12:37:36;101556.38;;;21.86;42.11
48872;BME280;36154;51.674;7.824;2023-05-24T12:40:02;101549.44;;;21.88;42.14
48872;BME280;36154;51.674;7.824;2023-05-24T12:42:29;101559.81;;;21.88;42.28
48872;BME280;36154;51.674;7.824;2023-05-24T12:44:54;101559.78;;;21.89;42.52
48872;BME280;36154;51.674;7.824;2023-05-24T12:47:20;101552.03;;;21.88;42.45
48872;BME280;36154;51.674;7.824;2023-05-24T12:49:45;101549.44;;;21.88;42.46
48872;BME280;36154;51.674;7.824;2023-05-24T12:52:11;101550.28;;;21.88;42.60
48872;BME280;36154;51.674;7.824;2023-05-24T12:54:37;101563.22;;;21.90;42.69
48872;BME280;36154;51.674;7.824;2023-05-24T12:57:02;101552.00;;;21.89;42.79
48872;BME280;36154;51.674;7.824;2023-05-24T12:59:27;101551.06;;;21.92;42.41
48872;BME280;36154;51.674;7.824;2023-05-24T13:01:53;101551.06;;;21.92;42.38
48872;BME280;36154;51.674;7.824;2023-05-24T13:04:20;101550.19;;;21.93;42.15